KCTB

Details ICAO KCTB (CTB)
Name Cut Bank Muni
Region United States
Timezone America/Denver (UTC-6.0)
Plans Departing 2
Arriving 7
Stats Elevation 3,854 ft / 1,175 m (AMSL)
Location 48.608355° -112.376147°
Runways 2
Magnetic Variation 12.863° E
Sunrise 2018-05-22 11:41:39 UTC / 2018-05-22 05:41:39 Local
Sunset 2018-05-23 03:13:36 UTC / 2018-05-22 21:13:36 Local
Advertisement - Login to hide

Runways

ID Width Length Bearing (true) Bearing (mag) Surface Threshold Offset Overrun Length
05 75 ft / 23 m 5,288 ft / 1,612 m 63.82° 50.96° Asphalt 0 ft / 0 m 0 ft / 0 m
13 75 ft / 23 m 5,296 ft / 1,614 m 152.25° 139.39° Asphalt 0 ft / 0 m 2,500 ft / 762 m
23 75 ft / 23 m 5,288 ft / 1,612 m 243.83° 230.97° Asphalt 0 ft / 0 m 0 ft / 0 m
31 75 ft / 23 m 5,296 ft / 1,614 m 332.26° 319.40° Asphalt 0 ft / 0 m 0 ft / 0 m

Map

Weather


0- 5 10 15 20 25 30 35+ Temperature / ° C

Clouds and Precipitation
Forecast for 2018-05-23 06:00 UTC. Updated an hour ago

Ground ~20,000 ft ~40,000 ft Winds

METAR

KCTB 230556Z AUTO 35003KT 10SM CLR 12/07 A2999 RMK AO2 SLP131 T01220067 10222 20106 50001

TAF

KCTB 230553Z 2306/2406 VRB06KT P6SM SCT200 FM231800 08009KT P6SM SCT050 BKN080 PROB30 2321/2401 -SHRA BKN050 FM240300 VRB05KT P6SM FEW060 SCT100

Frequencies

Recorded 119.02 MHz ASOS
Unicom 122.80 MHz CTAF/UNICOM
Unicom 122.80 MHz CTAF/UNICOM
Warning: Do not use this data for real-world aviation or navigation. No guarantee of current accuracy is given.